createdAt,value
2019-03-22T00:00:33.983Z,55.07
2019-03-22T00:03:02.766Z,65.73
2019-03-22T00:05:31.595Z,60.60
2019-03-22T00:08:00.307Z,59.80
2019-03-22T00:10:28.980Z,61.47
2019-03-22T00:12:57.629Z,59.40
2019-03-22T00:15:26.274Z,64.47
2019-03-22T00:17:54.962Z,68.27
2019-03-22T00:20:23.631Z,64.47
2019-03-22T00:22:52.374Z,60.93
2019-03-22T00:25:21.206Z,61.13
2019-03-22T00:27:49.869Z,63.67
2019-03-22T00:30:18.529Z,67.17
2019-03-22T00:32:47.709Z,72.53
2019-03-22T00:35:16.433Z,69.43
2019-03-22T00:37:45.172Z,64.73
2019-03-22T00:40:13.912Z,58.57
2019-03-22T00:42:42.576Z,69.10
2019-03-22T00:45:11.452Z,65.63
2019-03-22T00:47:40.213Z,64.90
2019-03-22T00:50:09.046Z,69.30
2019-03-22T00:52:37.771Z,68.77
2019-03-22T00:55:06.539Z,63.40
2019-03-22T00:57:35.297Z,72.20
2019-03-22T01:00:04.687Z,68.37
2019-03-22T01:02:33.419Z,64.87
2019-03-22T01:05:02.163Z,70.77
2019-03-22T01:07:30.837Z,69.13
2019-03-22T01:09:59.632Z,68.27
2019-03-22T01:12:28.346Z,62.80
2019-03-22T01:14:57.207Z,70.27
2019-03-22T01:17:25.897Z,65.43
2019-03-22T01:19:54.736Z,68.67
2019-03-22T01:22:23.468Z,67.90
2019-03-22T01:24:52.157Z,67.83
2019-03-22T01:27:20.872Z,70.73
2019-03-22T01:29:49.639Z,69.17
2019-03-22T01:32:18.331Z,65.17
2019-03-22T01:34:46.987Z,66.50
2019-03-22T01:37:15.699Z,73.13
2019-03-22T01:39:44.496Z,68.93
2019-03-22T01:42:13.171Z,67.17
2019-03-22T01:44:41.903Z,69.13
2019-03-22T01:47:10.697Z,74.67
2019-03-22T01:49:39.419Z,68.40
2019-03-22T01:52:08.156Z,73.53
2019-03-22T01:54:36.910Z,82.00
2019-03-22T01:57:05.644Z,72.50
2019-03-22T01:59:34.312Z,76.17
2019-03-22T02:02:03.070Z,74.27
2019-03-22T02:04:31.714Z,74.63
2019-03-22T02:07:00.363Z,75.87
2019-03-22T02:09:29.047Z,74.50
2019-03-22T02:11:57.780Z,79.93
2019-03-22T02:14:26.452Z,73.93
2019-03-22T02:16:55.232Z,87.23
2019-03-22T02:19:23.926Z,69.50
2019-03-22T02:21:52.650Z,76.40
2019-03-22T02:24:21.424Z,80.67
2019-03-22T02:26:50.150Z,78.47
2019-03-22T02:29:18.918Z,75.40
2019-03-22T02:31:47.659Z,79.87
2019-03-22T02:34:16.304Z,82.63
2019-03-22T02:36:45.056Z,76.80
2019-03-22T02:39:13.834Z,82.17
2019-03-22T02:41:42.554Z,79.67
2019-03-22T02:44:11.281Z,81.97
2019-03-22T02:46:39.977Z,79.20
2019-03-22T02:49:08.700Z,80.63
2019-03-22T02:51:37.432Z,86.30
2019-03-22T02:54:06.161Z,77.17
2019-03-22T02:56:34.925Z,77.73
2019-03-22T02:59:03.680Z,80.67
2019-03-22T03:01:32.441Z,78.17
2019-03-22T03:04:07.105Z,80.10
2019-03-22T03:06:35.834Z,78.30
2019-03-22T03:09:10.660Z,76.43
2019-03-22T03:11:39.400Z,82.00
2019-03-22T03:14:08.072Z,82.53
2019-03-22T03:16:36.786Z,76.70
2019-03-22T03:19:05.624Z,82.90
2019-03-22T03:21:34.372Z,80.07
2019-03-22T03:24:03.089Z,95.17
2019-03-22T03:26:31.840Z,102.10
2019-03-22T03:29:00.495Z,103.07
2019-03-22T03:31:29.141Z,90.53
2019-03-22T03:33:57.906Z,90.13
2019-03-22T03:36:26.659Z,94.40
2019-03-22T03:38:55.495Z,101.07
2019-03-22T03:41:24.191Z,94.00
2019-03-22T03:43:52.993Z,101.37
2019-03-22T03:46:21.707Z,99.63
2019-03-22T03:48:50.474Z,97.60
2019-03-22T03:51:19.181Z,89.13
2019-03-22T03:53:47.825Z,95.50
2019-03-22T03:56:16.565Z,97.03
2019-03-22T03:58:52.302Z,106.33
2019-03-22T04:01:15.676Z,99.67
2019-03-22T04:03:44.426Z,99.40
2019-03-22T04:06:13.149Z,96.80
2019-03-22T04:08:41.869Z,92.83
2019-03-22T04:11:10.618Z,94.53
2019-03-22T04:13:39.293Z,95.60
2019-03-22T04:16:08.018Z,93.67
2019-03-22T04:18:36.712Z,88.87
2019-03-22T04:21:05.357Z,88.87
2019-03-22T04:23:34.079Z,83.93
2019-03-22T04:26:02.915Z,84.60
2019-03-22T04:28:31.640Z,94.00
2019-03-22T04:31:00.339Z,96.10
2019-03-22T04:33:29.041Z,93.97
2019-03-22T04:35:57.727Z,95.33
2019-03-22T04:38:26.375Z,88.37
2019-03-22T04:40:55.286Z,88.53
2019-03-22T04:43:24.018Z,93.47
2019-03-22T04:45:53.076Z,91.83
2019-03-22T04:48:29.977Z,101.00
2019-03-22T04:51:00.107Z,90.37
2019-03-22T04:53:30.313Z,86.67
2019-03-22T04:56:01.600Z,96.60
2019-03-22T04:58:31.243Z,96.73
2019-03-22T05:01:00.752Z,98.77
2019-03-22T05:03:32.073Z,95.20
2019-03-22T05:06:02.249Z,99.17
2019-03-22T05:08:32.399Z,104.30
2019-03-22T05:11:01.916Z,103.20
2019-03-22T05:13:31.627Z,94.43
2019-03-22T05:16:00.552Z,118.93
2019-03-22T05:18:30.882Z,127.07
2019-03-22T05:20:59.603Z,115.70
2019-03-22T05:23:28.415Z,115.63
2019-03-22T05:25:58.781Z,136.30
2019-03-22T05:28:29.123Z,114.40
2019-03-22T05:31:29.131Z,100.40
2019-03-22T05:33:57.799Z,111.47
2019-03-22T05:36:26.413Z,114.03
2019-03-22T05:38:55.195Z,126.23
2019-03-22T05:41:23.851Z,119.13
2019-03-22T05:43:52.488Z,103.13
2019-03-22T05:46:26.330Z,104.80
2019-03-22T05:48:55.137Z,100.37
2019-03-22T05:51:24.816Z,94.23
2019-03-22T05:53:53.544Z,94.73
2019-03-22T05:56:22.241Z,98.53
2019-03-22T05:58:59.123Z,93.17
2019-03-22T06:01:27.894Z,103.90
2019-03-22T06:03:56.681Z,102.67
2019-03-22T06:06:25.411Z,97.43
2019-03-22T06:08:55.280Z,106.67
2019-03-22T06:11:24.048Z,103.83
2019-03-22T06:13:53.059Z,93.87
2019-03-22T06:16:22.035Z,93.30
2019-03-22T06:18:50.676Z,98.20
2019-03-22T06:21:19.547Z,99.03
2019-03-22T06:23:52.075Z,91.90
2019-03-22T06:26:22.063Z,101.47
2019-03-22T06:28:50.864Z,100.27
2019-03-22T06:31:20.848Z,102.23
2019-03-22T06:33:49.687Z,114.97
2019-03-22T06:36:18.607Z,112.00
2019-03-22T06:38:47.239Z,109.03
2019-03-22T06:41:15.980Z,105.33
2019-03-22T06:43:44.690Z,102.37
2019-03-22T06:46:13.409Z,104.10
2019-03-22T06:48:46.596Z,96.43
2019-03-22T06:51:15.262Z,96.37
2019-03-22T06:53:43.956Z,100.17
2019-03-22T06:56:12.631Z,91.07
2019-03-22T06:58:41.341Z,82.07
2019-03-22T07:01:10.068Z,83.70
2019-03-22T07:03:38.780Z,84.93
2019-03-22T07:06:07.431Z,90.07
2019-03-22T07:08:36.085Z,89.53
2019-03-22T07:11:04.828Z,76.70
2019-03-22T07:13:33.564Z,90.47
2019-03-22T07:16:02.269Z,87.73
2019-03-22T07:18:31.360Z,83.13
2019-03-22T07:21:00.064Z,79.87
2019-03-22T07:23:28.811Z,71.77
2019-03-22T07:25:57.753Z,67.93
2019-03-22T07:28:26.680Z,68.10
2019-03-22T07:30:55.525Z,70.13
2019-03-22T07:33:24.174Z,63.93
2019-03-22T07:35:52.849Z,57.37
2019-03-22T07:38:21.555Z,59.60
2019-03-22T07:40:50.488Z,59.50
2019-03-22T07:43:19.180Z,57.97
2019-03-22T07:45:47.827Z,61.00
2019-03-22T07:48:16.616Z,62.33
2019-03-22T07:50:45.253Z,61.30
2019-03-22T07:53:13.898Z,64.40
2019-03-22T07:55:47.567Z,61.27
2019-03-22T07:58:16.330Z,63.27
2019-03-22T08:00:45.067Z,59.30
2019-03-22T08:03:13.778Z,58.77
2019-03-22T08:05:50.838Z,57.90
2019-03-22T08:08:12.836Z,59.77
2019-03-22T08:10:41.656Z,51.50
2019-03-22T08:13:10.312Z,51.30
2019-03-22T08:15:39.016Z,49.30
2019-03-22T08:18:07.812Z,42.93
2019-03-22T08:20:38.597Z,45.60
2019-03-22T08:23:16.643Z,44.23
2019-03-22T08:25:45.285Z,43.83
2019-03-22T08:28:13.917Z,46.57
2019-03-22T08:30:43.478Z,42.50
2019-03-22T08:33:12.329Z,41.03
2019-03-22T08:35:41.195Z,41.77
2019-03-22T08:38:10.310Z,36.87
2019-03-22T08:40:39.117Z,43.07
2019-03-22T08:43:07.844Z,38.03
2019-03-22T08:45:36.616Z,34.83
2019-03-22T08:48:05.354Z,37.33
2019-03-22T08:50:34.098Z,36.63
2019-03-22T08:53:02.795Z,35.33
2019-03-22T08:55:31.424Z,34.23
2019-03-22T08:58:00.156Z,41.10
2019-03-22T09:00:38.719Z,32.20
2019-03-22T09:02:59.336Z,32.67
2019-03-22T09:05:28.092Z,33.70
2019-03-22T09:07:56.745Z,33.70
2019-03-22T09:10:25.515Z,31.23
2019-03-22T09:12:54.160Z,30.80
2019-03-22T09:15:22.941Z,31.43
2019-03-22T09:17:51.575Z,27.30
2019-03-22T09:20:20.270Z,28.63
2019-03-22T09:22:49.018Z,26.17
2019-03-22T09:25:17.783Z,24.27
2019-03-22T09:27:46.525Z,21.87
2019-03-22T09:30:15.595Z,28.47
2019-03-22T09:32:44.338Z,28.03
2019-03-22T09:35:13.039Z,25.23
2019-03-22T09:37:41.946Z,25.57
2019-03-22T09:40:10.658Z,22.90
2019-03-22T09:42:44.479Z,24.20
2019-03-22T09:45:14.437Z,23.93
2019-03-22T09:47:43.381Z,24.10
2019-03-22T09:50:16.074Z,24.20
2019-03-22T09:52:44.808Z,20.03
2019-03-22T09:55:14.506Z,18.03
2019-03-22T09:57:43.463Z,22.33
2019-03-22T10:00:13.750Z,22.17
2019-03-22T10:02:43.718Z,20.40
2019-03-22T10:05:20.455Z,17.33
2019-03-22T10:07:50.180Z,20.03
2019-03-22T10:10:19.134Z,20.80
2019-03-22T10:12:47.987Z,18.60
2019-03-22T10:15:16.626Z,16.07
2019-03-22T10:17:45.367Z,18.60
2019-03-22T10:20:14.689Z,18.43
2019-03-22T10:22:43.375Z,16.97
2019-03-22T10:25:15.195Z,14.80
2019-03-22T10:27:43.811Z,17.47
2019-03-22T10:30:16.053Z,17.87
2019-03-22T10:32:46.001Z,16.63
2019-03-22T10:35:25.446Z,17.73
2019-03-22T10:37:45.365Z,18.80
2019-03-22T10:40:25.353Z,17.23
2019-03-22T10:42:54.509Z,15.30
2019-03-22T10:45:23.350Z,15.30
2019-03-22T10:47:53.107Z,15.07
2019-03-22T10:50:21.800Z,16.83
2019-03-22T10:52:51.081Z,12.17
2019-03-22T10:55:29.613Z,15.80
2019-03-22T10:57:55.577Z,15.63
2019-03-22T11:00:24.493Z,12.97
2019-03-22T11:02:53.411Z,12.97
2019-03-22T11:05:22.464Z,11.90
2019-03-22T11:07:51.229Z,11.60
2019-03-22T11:10:20.533Z,13.23
2019-03-22T11:12:59.196Z,12.23
2019-03-22T11:15:48.652Z,15.33
2019-03-22T11:18:16.081Z,15.83
2019-03-22T11:20:45.779Z,13.33
2019-03-22T11:23:14.667Z,10.57
2019-03-22T11:25:43.351Z,10.97
2019-03-22T11:28:12.244Z,14.90
2019-03-22T11:30:41.041Z,11.97
2019-03-22T11:33:09.792Z,10.17
2019-03-22T11:35:38.501Z,11.83
2019-03-22T11:38:07.237Z,8.30
2019-03-22T11:40:36.028Z,11.13
2019-03-22T11:43:08.828Z,9.80
2019-03-22T11:45:35.757Z,11.60
2019-03-22T11:48:04.529Z,12.27
2019-03-22T11:50:34.589Z,10.33
2019-03-22T11:53:03.551Z,11.00
2019-03-22T11:55:32.279Z,8.97
2019-03-22T11:58:01.007Z,11.03
2019-03-22T12:00:29.781Z,12.47
2019-03-22T12:02:58.556Z,9.73
2019-03-22T12:05:27.687Z,11.30
2019-03-22T12:07:56.542Z,12.53
2019-03-22T12:10:25.271Z,15.30
2019-03-22T12:12:53.967Z,12.37
2019-03-22T12:15:22.833Z,10.40
2019-03-22T12:17:51.804Z,11.43
2019-03-22T12:20:21.331Z,12.30
2019-03-22T12:22:50.086Z,11.80
2019-03-22T12:25:18.873Z,9.50
2019-03-22T12:27:48.459Z,12.17
2019-03-22T12:30:17.381Z,11.77
2019-03-22T12:32:46.102Z,11.33
2019-03-22T12:35:14.943Z,11.07
2019-03-22T12:37:43.738Z,13.63
2019-03-22T12:40:12.975Z,13.17
2019-03-22T12:42:41.898Z,11.40
2019-03-22T12:45:11.808Z,11.67
2019-03-22T12:47:40.554Z,9.93
2019-03-22T12:50:09.581Z,11.50
2019-03-22T12:52:38.363Z,14.50
2019-03-22T12:55:07.676Z,15.03
2019-03-22T12:57:36.410Z,9.73
2019-03-22T13:00:06.213Z,11.13
2019-03-22T13:02:41.986Z,11.17
2019-03-22T13:05:06.004Z,11.83
2019-03-22T13:07:34.819Z,11.17
2019-03-22T13:10:03.691Z,10.87
2019-03-22T13:12:32.475Z,11.27
2019-03-22T13:15:03.378Z,12.27
2019-03-22T13:17:32.040Z,11.63
2019-03-22T13:20:00.761Z,13.07
2019-03-22T13:22:30.437Z,9.73
2019-03-22T13:24:59.096Z,10.87
2019-03-22T13:27:27.789Z,10.60
2019-03-22T13:29:56.510Z,10.63
2019-03-22T13:32:25.198Z,11.50
2019-03-22T13:34:54.029Z,10.60
2019-03-22T13:37:22.702Z,10.00
2019-03-22T13:39:51.393Z,11.70
2019-03-22T13:42:20.360Z,10.67
2019-03-22T13:44:49.405Z,9.13
2019-03-22T13:47:18.086Z,11.90
2019-03-22T13:49:46.836Z,8.80
2019-03-22T13:52:15.765Z,12.87
2019-03-22T13:54:44.726Z,10.20
2019-03-22T13:57:13.488Z,9.17
2019-03-22T13:59:42.284Z,14.77
2019-03-22T14:02:11.043Z,11.63
2019-03-22T14:04:41.817Z,11.40
2019-03-22T14:07:10.472Z,9.70
2019-03-22T14:09:39.200Z,12.33
2019-03-22T14:12:08.021Z,11.17
2019-03-22T14:14:36.772Z,8.37
2019-03-22T14:17:05.491Z,9.37
2019-03-22T14:19:34.179Z,9.83
2019-03-22T14:22:03.033Z,9.67
2019-03-22T14:24:31.731Z,9.03
2019-03-22T14:27:00.455Z,12.67
2019-03-22T14:29:29.121Z,11.80
2019-03-22T14:31:57.899Z,11.73
2019-03-22T14:34:26.626Z,10.40
2019-03-22T14:36:56.492Z,9.77
2019-03-22T14:39:25.225Z,10.57
2019-03-22T14:41:53.955Z,12.83
2019-03-22T14:44:25.457Z,10.97
2019-03-22T14:46:53.140Z,12.20
2019-03-22T14:49:21.828Z,12.77
2019-03-22T14:51:50.681Z,11.23
2019-03-22T14:54:19.326Z,9.53
2019-03-22T14:56:48.075Z,12.57
2019-03-22T14:59:16.870Z,14.07
2019-03-22T15:01:45.545Z,11.23
2019-03-22T15:04:14.188Z,11.00
2019-03-22T15:06:43.048Z,13.07
2019-03-22T15:09:11.772Z,10.23
2019-03-22T15:11:40.483Z,14.00
2019-03-22T15:14:29.884Z,10.27
2019-03-22T15:17:17.225Z,10.97
2019-03-22T15:20:11.220Z,12.57
2019-03-22T15:22:59.247Z,14.17
2019-03-22T15:26:02.190Z,10.43
2019-03-22T15:28:56.252Z,13.53
2019-03-22T15:31:56.563Z,13.73
2019-03-22T15:34:39.856Z,10.87
2019-03-22T15:37:26.498Z,10.93
2019-03-22T15:40:00.662Z,10.83
2019-03-22T15:42:29.535Z,12.83
2019-03-22T15:44:58.283Z,12.97
2019-03-22T15:47:27.128Z,11.73
2019-03-22T15:49:57.061Z,12.60
2019-03-22T15:52:25.817Z,11.47
2019-03-22T15:54:54.823Z,11.60
2019-03-22T15:57:23.665Z,13.83
2019-03-22T15:59:52.346Z,10.70
2019-03-22T16:02:21.190Z,14.83
2019-03-22T16:04:50.072Z,14.00
2019-03-22T16:07:18.904Z,15.83
2019-03-22T16:09:47.675Z,13.07
2019-03-22T16:12:22.529Z,13.33
2019-03-22T16:14:51.266Z,13.77
2019-03-22T16:17:20.064Z,10.80
2019-03-22T16:19:48.897Z,12.47
2019-03-22T16:22:17.776Z,13.07
2019-03-22T16:24:46.436Z,12.73
2019-03-22T16:27:15.129Z,11.23
2019-03-22T16:29:43.783Z,12.23
2019-03-22T16:32:12.587Z,16.43
2019-03-22T16:34:41.488Z,12.40
2019-03-22T16:37:10.140Z,12.10
2019-03-22T16:39:38.881Z,11.13
2019-03-22T16:42:07.697Z,11.73
2019-03-22T16:44:36.428Z,10.77
2019-03-22T16:47:05.239Z,16.83
2019-03-22T16:49:34.046Z,9.83
2019-03-22T16:52:02.795Z,9.70
2019-03-22T16:54:31.669Z,11.77
2019-03-22T16:57:00.374Z,12.73
2019-03-22T16:59:29.192Z,11.73
2019-03-22T17:01:57.981Z,9.30
2019-03-22T17:04:26.663Z,10.63
2019-03-22T17:06:55.486Z,11.27
2019-03-22T17:09:24.349Z,13.60
2019-03-22T17:11:53.144Z,11.90
2019-03-22T17:14:21.966Z,11.40
2019-03-22T17:16:50.713Z,12.90
2019-03-22T17:19:19.516Z,12.80
2019-03-22T17:21:48.304Z,11.80
2019-03-22T17:24:17.048Z,10.87
2019-03-22T17:26:45.763Z,10.17
2019-03-22T17:29:14.483Z,10.77
2019-03-22T17:31:43.356Z,8.97
2019-03-22T17:34:14.448Z,8.53
2019-03-22T17:36:43.313Z,12.40
2019-03-22T17:39:12.168Z,11.00
2019-03-22T17:41:41.497Z,9.13
2019-03-22T17:44:10.291Z,9.30
2019-03-22T17:46:39.030Z,13.03
2019-03-22T17:49:07.712Z,12.40
2019-03-22T17:51:36.480Z,12.43
2019-03-22T17:54:05.257Z,9.53
2019-03-22T17:56:34.028Z,10.70
2019-03-22T17:59:02.755Z,9.17
2019-03-22T18:01:31.553Z,7.93
2019-03-22T18:04:37.941Z,9.13
2019-03-22T18:07:07.172Z,7.77
2019-03-22T18:09:35.912Z,7.12
2019-03-22T18:12:04.638Z,8.30
2019-03-22T18:14:33.399Z,8.83
2019-03-22T18:17:02.176Z,9.60
2019-03-22T18:19:30.816Z,6.63
2019-03-22T18:22:00.174Z,5.90
2019-03-22T18:24:28.856Z,9.40
2019-03-22T18:26:57.608Z,12.10
2019-03-22T18:29:27.044Z,8.83
2019-03-22T18:31:55.895Z,8.03
2019-03-22T18:34:33.919Z,11.87
2019-03-22T18:36:55.138Z,10.33
2019-03-22T18:39:50.689Z,14.37
2019-03-22T18:42:19.521Z,8.50
2019-03-22T18:44:48.278Z,11.57
2019-03-22T18:47:17.090Z,9.40
2019-03-22T18:49:45.779Z,10.10
2019-03-22T18:52:14.508Z,10.47
2019-03-22T18:54:43.337Z,10.87
2019-03-22T18:57:12.033Z,13.37
2019-03-22T18:59:40.760Z,10.80
2019-03-22T19:02:09.591Z,9.73
2019-03-22T19:04:43.838Z,10.90
2019-03-22T19:07:08.821Z,9.90
2019-03-22T19:09:37.614Z,11.57
2019-03-22T19:12:06.445Z,12.17
2019-03-22T19:14:35.308Z,10.83
2019-03-22T19:17:04.205Z,11.87
2019-03-22T19:19:33.082Z,9.27
2019-03-22T19:22:01.955Z,11.50
2019-03-22T19:24:31.701Z,14.97
2019-03-22T19:27:00.575Z,13.43
2019-03-22T19:29:29.393Z,14.80
2019-03-22T19:32:00.294Z,15.07
2019-03-22T19:34:28.783Z,14.60
2019-03-22T19:36:57.534Z,16.77
2019-03-22T19:39:26.246Z,13.17
2019-03-22T19:41:54.964Z,15.67
2019-03-22T19:44:23.727Z,15.37
2019-03-22T19:46:52.511Z,15.73
2019-03-22T19:49:21.329Z,17.57
2019-03-22T19:51:50.044Z,14.57
2019-03-22T19:54:18.853Z,19.27
2019-03-22T19:56:47.531Z,18.10
2019-03-22T19:59:16.272Z,15.60
2019-03-22T20:01:44.984Z,19.67
2019-03-22T20:04:13.962Z,16.40
2019-03-22T20:06:42.646Z,16.60
2019-03-22T20:09:11.566Z,17.23
2019-03-22T20:11:40.411Z,17.10
2019-03-22T20:14:09.211Z,18.50
2019-03-22T20:16:38.077Z,18.03
2019-03-22T20:19:06.938Z,17.17
2019-03-22T20:21:35.688Z,17.17
2019-03-22T20:24:04.513Z,21.93
2019-03-22T20:26:33.256Z,16.20
2019-03-22T20:29:02.015Z,15.43
2019-03-22T20:31:30.881Z,19.77
2019-03-22T20:33:59.760Z,16.53
2019-03-22T20:36:28.520Z,14.53
2019-03-22T20:38:57.222Z,14.50
2019-03-22T20:41:25.952Z,13.20
2019-03-22T20:43:54.692Z,13.63
2019-03-22T20:46:34.285Z,14.60
2019-03-22T20:49:05.214Z,14.83
2019-03-22T20:51:33.977Z,15.27
2019-03-22T20:54:02.723Z,15.57
2019-03-22T20:56:32.706Z,15.87
2019-03-22T20:59:01.344Z,14.87
2019-03-22T21:01:30.061Z,14.57
2019-03-22T21:03:58.835Z,13.50
2019-03-22T21:06:28.552Z,15.93
2019-03-22T21:08:57.259Z,21.53
2019-03-22T21:11:25.977Z,15.00
2019-03-22T21:13:54.663Z,15.43
2019-03-22T21:16:23.346Z,13.50
2019-03-22T21:18:52.017Z,13.85
2019-03-22T21:21:20.652Z,12.77
2019-03-22T21:23:49.515Z,14.30
2019-03-22T21:26:18.252Z,12.53
2019-03-22T21:28:46.985Z,10.00
2019-03-22T21:31:15.771Z,11.97
2019-03-22T21:33:44.964Z,10.50
2019-03-22T21:36:13.774Z,11.63
2019-03-22T21:38:42.792Z,9.10
2019-03-22T21:41:11.546Z,11.13
2019-03-22T21:43:40.305Z,10.67
2019-03-22T21:46:09.094Z,10.30
2019-03-22T21:48:37.859Z,13.07
2019-03-22T21:51:06.839Z,10.47
2019-03-22T21:53:35.610Z,11.33
2019-03-22T21:56:04.484Z,8.53
2019-03-22T21:58:33.269Z,11.07
2019-03-22T22:01:01.957Z,9.23
2019-03-22T22:03:30.848Z,15.87
2019-03-22T22:05:59.486Z,6.33
2019-03-22T22:08:28.339Z,8.10
2019-03-22T22:11:00.034Z,9.93
2019-03-22T22:13:27.579Z,8.80
2019-03-22T22:15:56.453Z,11.27
2019-03-22T22:18:25.203Z,7.70
2019-03-22T22:20:53.897Z,9.53
2019-03-22T22:23:22.771Z,9.03
2019-03-22T22:25:51.692Z,8.20
2019-03-22T22:28:20.469Z,8.40
2019-03-22T22:30:49.314Z,6.93
2019-03-22T22:33:18.068Z,8.73
2019-03-22T22:38:57.053Z,8.00
2019-03-22T22:41:25.850Z,9.27
2019-03-22T22:43:54.501Z,7.67
2019-03-22T22:46:23.288Z,8.40
2019-03-22T22:48:51.948Z,11.50
2019-03-22T22:51:20.617Z,9.63
2019-03-22T22:53:49.350Z,9.00
2019-03-22T22:56:18.006Z,6.77
2019-03-22T22:58:46.720Z,7.13
2019-03-22T23:01:15.424Z,8.80
2019-03-22T23:03:44.064Z,7.23
2019-03-22T23:06:12.846Z,8.47
2019-03-22T23:08:41.678Z,9.47
2019-03-22T23:11:10.877Z,8.30
2019-03-22T23:13:39.536Z,7.07
2019-03-22T23:16:08.325Z,10.13
2019-03-22T23:18:38.053Z,7.87
2019-03-22T23:21:06.794Z,9.93
2019-03-22T23:23:35.492Z,7.73
2019-03-22T23:26:04.224Z,8.53
2019-03-22T23:28:32.944Z,8.47
2019-03-22T23:31:01.846Z,6.60
2019-03-22T23:33:30.492Z,8.53
2019-03-22T23:35:59.279Z,7.60
2019-03-22T23:38:28.063Z,9.17
2019-03-22T23:40:56.824Z,8.07
2019-03-22T23:43:25.470Z,8.10
2019-03-22T23:45:54.219Z,5.90
2019-03-22T23:48:23.030Z,7.27
2019-03-22T23:50:51.744Z,6.80
2019-03-22T23:53:31.258Z,8.95
2019-03-22T23:55:59.976Z,9.17
2019-03-22T23:58:28.594Z,7.90
